Time;durP1;ratioP1;P1;durP2;ratioP2;P2;SDS_P1;SDS_P2;PMS_P1;PMS_P2;Temp;Humidity;BMP_temperature;BMP_pressure;BME280_temperature;BME280_humidity;BME280_pressure;Samples;Min_cycle;Max_cycle;Signal;HPM_P1;HPM_P2
2022/07/14 00:03:56;;;;;;;6.05;3.03;;;;;;;15.89;78.17;102145.31;10396908;28;20457;-70
2022/07/14 00:08:57;;;;;;;11.98;2.88;;;;;;;15.80;76.72;102149.25;10415820;28;20558;-70
2022/07/14 00:13:58;;;;;;;11.18;2.47;;;;;;;15.65;76.90;102146.59;10416132;28;20041;-69
2022/07/14 00:18:58;;;;;;;12.93;2.70;;;;;;;15.58;76.90;102143.84;10415320;28;20052;-70
2022/07/14 00:23:59;;;;;;;6.60;2.35;;;;;;;15.47;77.08;102138.91;10415365;28;20374;-69
2022/07/14 00:28:59;;;;;;;14.07;2.83;;;;;;;15.41;76.57;102144.34;10414045;28;20037;-70
2022/07/14 00:34:00;;;;;;;14.27;3.13;;;;;;;15.30;78.01;102154.75;10414621;28;20037;-72
2022/07/14 00:39:00;;;;;;;3.22;1.85;;;;;;;15.19;79.45;102147.13;10416177;28;20026;-70
2022/07/14 00:44:01;;;;;;;10.77;2.75;;;;;;;15.03;78.21;102136.50;10422199;28;20060;-71
2022/07/14 00:49:02;;;;;;;16.63;3.80;;;;;;;14.98;77.48;102155.34;10405533;28;20484;-69
2022/07/14 00:54:02;;;;;;;4.22;1.92;;;;;;;14.92;77.52;102156.97;10422114;28;20057;-70
2022/07/14 00:59:03;;;;;;;8.13;2.20;;;;;;;14.82;78.56;102153.72;10422278;28;20071;-70
2022/07/14 01:04:03;;;;;;;2.10;1.88;;;;;;;14.72;78.61;102143.13;10421540;28;20041;-69
2022/07/14 01:09:04;;;;;;;7.45;2.83;;;;;;;14.65;78.79;102150.41;10421492;28;20116;-71
2022/07/14 01:14:05;;;;;;;7.85;2.88;;;;;;;14.58;78.05;102158.53;10421175;28;20045;-70
2022/07/14 01:19:05;;;;;;;9.70;3.53;;;;;;;14.47;77.83;102153.53;10403339;28;20032;-70
2022/07/14 01:24:06;;;;;;;11.93;2.85;;;;;;;14.38;77.79;102155.53;10421155;28;20052;-70
2022/07/14 01:29:07;;;;;;;7.40;3.08;;;;;;;14.31;77.64;102157.34;10421684;28;20057;-70
2022/07/14 01:34:08;;;;;;;8.90;2.75;;;;;;;14.26;78.31;102154.31;10402606;28;20393;-70
2022/07/14 01:39:08;;;;;;;4.63;2.60;;;;;;;14.18;77.54;102158.03;10420277;28;20124;-70
2022/07/14 01:44:10;;;;;;;2.03;1.92;;;;;;;14.14;77.94;102158.59;10419997;28;20034;-69
2022/07/14 01:49:10;;;;;;;5.15;2.75;;;;;;;14.04;77.67;102158.91;10419331;28;20458;-69
2022/07/14 01:54:11;;;;;;;10.93;3.58;;;;;;;14.03;78.26;102156.34;10418815;28;20092;-69
2022/07/14 01:59:11;;;;;;;6.53;2.92;;;;;;;13.96;78.51;102151.66;10385309;28;20041;-70
2022/07/14 02:04:13;;;;;;;2.85;1.92;;;;;;;13.94;78.66;102150.16;10418536;28;20048;-70
2022/07/14 02:09:13;;;;;;;6.57;2.63;;;;;;;13.86;79.42;102147.53;10401443;28;20029;-70
2022/07/14 02:14:14;;;;;;;8.50;2.35;;;;;;;13.82;78.55;102128.03;10418011;28;20029;-69
2022/07/14 02:19:16;;;;;;;7.60;3.08;;;;;;;13.78;78.58;102128.56;10418490;28;20049;-70
2022/07/14 02:24:17;;;;;;;6.93;2.78;;;;;;;13.70;78.76;102127.66;10417756;28;20044;-69
2022/07/14 02:29:18;;;;;;;14.00;2.90;;;;;;;13.61;78.81;102117.03;10418675;28;20342;-70
2022/07/14 02:34:18;;;;;;;10.02;3.22;;;;;;;13.53;78.40;102118.00;10399575;28;20436;-70
2022/07/14 02:39:19;;;;;;;4.78;2.35;;;;;;;13.51;78.83;102116.47;10417602;28;20033;-70
2022/07/14 02:44:19;;;;;;;5.50;2.65;;;;;;;13.43;79.29;102117.41;10418034;28;20041;-71
2022/07/14 02:49:20;;;;;;;6.95;3.05;;;;;;;13.41;78.85;102108.59;10418834;28;20026;-69
2022/07/14 02:54:20;;;;;;;11.15;3.47;;;;;;;13.38;79.59;102111.69;10417957;28;20064;-70
2022/07/14 02:59:20;;;;;;;19.20;3.78;;;;;;;13.30;79.41;102112.59;10417481;28;20045;-69
2022/07/14 03:04:21;;;;;;;6.32;2.88;;;;;;;13.26;79.18;102120.28;10416286;28;20034;-71
2022/07/14 03:09:21;;;;;;;7.65;2.65;;;;;;;13.20;79.27;102121.00;10416968;28;20091;-70
2022/07/14 03:14:22;;;;;;;9.40;2.88;;;;;;;13.17;80.07;102118.66;10416920;28;20041;-70
2022/07/14 03:19:22;;;;;;;11.00;3.10;;;;;;;13.17;80.21;102118.66;10416664;28;20037;-70
2022/07/14 03:24:22;;;;;;;4.35;3.08;;;;;;;13.10;79.87;102119.59;10415931;28;20037;-71
2022/07/14 03:29:23;;;;;;;5.55;2.85;;;;;;;13.09;80.22;102113.31;10415301;28;20045;-70
2022/07/14 03:34:23;;;;;;;14.57;3.58;;;;;;;13.11;81.02;102107.66;10415732;28;20040;-70
2022/07/14 03:39:24;;;;;;;6.32;2.17;;;;;;;13.20;80.87;102107.41;10415060;28;20041;-70
2022/07/14 03:44:24;;;;;;;8.18;2.97;;;;;;;13.20;80.69;102112.00;10413998;28;20099;-71
2022/07/14 03:49:24;;;;;;;9.00;3.53;;;;;;;13.24;80.98;102132.34;10414632;28;20481;-71
2022/07/14 03:54:25;;;;;;;4.05;2.33;;;;;;;13.23;80.73;102122.50;10414439;28;20065;-71
2022/07/14 03:59:25;;;;;;;3.08;2.30;;;;;;;13.25;80.82;102123.22;10415617;28;20029;-71
2022/07/14 04:04:25;;;;;;;4.93;3.42;;;;;;;13.30;80.94;102109.88;10414817;28;20042;-69
2022/07/14 04:09:26;;;;;;;13.38;3.58;;;;;;;13.38;81.33;102100.81;10397130;28;20405;-71
2022/07/14 04:14:26;;;;;;;4.43;2.85;;;;;;;13.45;82.32;102101.75;10419569;28;20121;-70
2022/07/14 04:19:27;;;;;;;6.82;3.13;;;;;;;13.56;82.47;102101.28;10423059;28;20045;-71
2022/07/14 04:24:27;;;;;;;4.97;2.45;;;;;;;13.69;82.35;102103.34;10423136;28;20037;-70
2022/07/14 04:29:28;;;;;;;2.33;2.08;;;;;;;13.81;84.35;102090.91;10422839;28;20029;-72
2022/07/14 04:34:28;;;;;;;26.23;4.07;;;;;;;13.93;84.21;102089.41;10406507;28;20124;-72
2022/07/14 04:39:28;;;;;;;9.73;3.08;;;;;;;13.98;85.62;102077.94;10422379;28;20033;-71
2022/07/14 04:44:29;;;;;;;5.50;2.42;;;;;;;14.06;86.48;102080.53;10423197;28;20520;-69
2022/07/14 04:54:48;;;;;;;3.22;2.80;;;;;;;14.84;86.35;102086.19;10420665;28;20053;-66
2022/07/14 04:59:49;;;;;;;7.82;2.90;;;;;;;15.74;86.68;102101.75;10403331;28;20469;-66
2022/07/14 05:04:50;;;;;;;4.68;2.28;;;;;;;16.35;86.20;102100.06;10421619;28;20033;-66
2022/07/14 05:09:50;;;;;;;4.00;2.45;;;;;;;16.84;85.39;102099.72;10421196;28;20037;-66
2022/07/14 05:14:50;;;;;;;9.57;3.03;;;;;;;17.42;84.64;102097.19;10421316;28;20034;-71
2022/07/14 05:19:51;;;;;;;4.57;2.05;;;;;;;17.77;84.76;102107.88;10421072;28;20042;-71
2022/07/14 05:24:52;;;;;;;4.68;2.75;;;;;;;18.10;84.50;102112.38;10419855;28;20017;-71
2022/07/14 05:29:52;;;;;;;4.80;3.10;;;;;;;18.49;84.83;102097.59;10419777;28;20535;-71
2022/07/14 05:34:52;;;;;;;2.25;1.90;;;;;;;17.72;84.39;102107.63;10420077;28;20029;-70
2022/07/14 05:39:53;;;;;;;6.15;2.35;;;;;;;17.16;83.75;102110.88;10421853;28;20453;-70
2022/07/14 05:44:53;;;;;;;3.25;2.22;;;;;;;16.77;83.08;102114.47;10420480;28;20041;-71
2022/07/14 05:49:53;;;;;;;10.00;3.50;;;;;;;18.16;81.96;102127.13;10420518;28;20469;-72
2022/07/14 05:54:57;;;;;;;4.68;2.13;;;;;;;19.35;80.51;102112.53;10419891;28;20144;-71
2022/07/14 05:59:57;;;;;;;12.63;2.63;;;;;;;20.43;78.80;102116.56;10402390;28;20060;-71
2022/07/14 06:04:58;;;;;;;5.15;2.25;;;;;;;20.98;76.22;102110.84;10420415;28;20037;-71
2022/07/14 06:09:58;;;;;;;3.88;2.22;;;;;;;21.41;73.90;102112.47;10419044;28;20037;-71
2022/07/14 06:14:59;;;;;;;10.02;2.47;;;;;;;21.77;73.24;102096.69;10419585;28;20061;-71
2022/07/14 06:20:06;;;;;;;4.70;1.98;;;;;;;22.44;68.62;102108.00;10418675;28;20068;-72
2022/07/14 06:25:06;;;;;;;5.47;2.00;;;;;;;22.55;67.62;102097.97;10402068;28;20041;-71
2022/07/14 06:30:07;;;;;;;10.15;2.25;;;;;;;21.75;64.58;102083.13;10417693;28;20091;-71
2022/07/14 06:35:08;;;;;;;3.03;1.73;;;;;;;21.91;63.52;102087.06;10415553;28;20022;-72
2022/07/14 06:40:11;;;;;;;2.42;1.55;;;;;;;22.28;62.85;102086.72;10416353;28;20034;-71
2022/07/14 06:45:12;;;;;;;2.17;1.98;;;;;;;22.86;62.67;102082.75;10416552;28;20450;-72
2022/07/14 06:50:12;;;;;;;2.50;1.80;;;;;;;21.93;63.48;102071.13;10400095;28;20065;-72
2022/07/14 06:55:12;;;;;;;5.15;2.17;;;;;;;22.74;59.43;102068.19;10416261;28;20096;-71
2022/07/14 07:00:14;;;;;;;4.95;2.55;;;;;;;23.96;59.68;102066.38;10417452;28;20401;-72
2022/07/14 07:10:40;;;;;;;5.38;2.20;;;;;;;25.24;58.51;102046.25;10415583;28;20041;-71
2022/07/14 07:15:41;;;;;;;4.75;2.25;;;;;;;25.92;55.77;102056.56;10417905;28;20087;-72
2022/07/14 07:20:43;;;;;;;12.63;2.58;;;;;;;26.51;52.61;102046.97;10416919;28;20110;-71
2022/07/14 07:25:43;;;;;;;7.18;2.45;;;;;;;25.83;48.48;102047.09;10415772;28;20034;-72
2022/07/14 07:30:44;;;;;;;4.43;2.20;;;;;;;24.74;54.87;102061.38;10416610;28;20033;-71
2022/07/14 07:35:45;;;;;;;1.83;1.55;;;;;;;25.67;52.18;102055.31;10415946;28;20116;-72
2022/07/14 07:40:48;;;;;;;7.60;1.92;;;;;;;26.18;44.48;102054.66;10417034;28;20029;-70
2022/07/14 07:45:49;;;;;;;2.50;1.55;;;;;;;26.39;48.08;102059.16;10416955;28;20346;-70
2022/07/14 07:50:55;;;;;;;9.30;2.22;;;;;;;27.25;47.21;102059.41;10380781;28;20034;-70
2022/07/14 07:55:55;;;;;;;3.75;1.83;;;;;;;28.01;47.07;102056.34;10415824;28;20137;-71
2022/07/14 08:00:56;;;;;;;2.20;1.75;;;;;;;28.46;48.77;102060.00;10414867;28;20568;-70
2022/07/14 08:05:56;;;;;;;3.30;2.13;;;;;;;28.41;46.15;102059.19;10413656;28;20034;-71
2022/07/14 08:10:56;;;;;;;6.53;2.03;;;;;;;27.89;42.71;102055.03;10413486;28;20037;-71
2022/07/14 08:15:58;;;;;;;2.88;1.95;;;;;;;28.23;46.28;102053.16;10414494;28;20041;-71
2022/07/14 08:20:59;;;;;;;9.32;1.50;;;;;;;29.10;43.78;102040.47;10398725;28;20030;-72
2022/07/14 08:25:59;;;;;;;4.85;1.75;;;;;;;29.33;44.23;102042.44;10397396;28;20037;-70
2022/07/14 08:31:00;;;;;;;5.20;1.80;;;;;;;29.34;43.62;102034.91;10414854;28;20037;-70
2022/07/14 08:36:00;;;;;;;4.00;1.70;;;;;;;29.66;38.22;102031.47;10397570;28;20070;-71
2022/07/14 08:41:00;;;;;;;1.40;1.20;;;;;;;29.26;41.36;102028.03;10399637;28;20037;-71
2022/07/14 08:46:03;;;;;;;0.98;0.98;;;;;;;29.92;40.20;102028.31;10413718;28;20112;-73
2022/07/14 08:51:04;;;;;;;1.25;1.10;;;;;;;29.90;40.90;102028.63;10397867;28;20033;-71
2022/07/14 08:56:05;;;;;;;4.88;1.30;;;;;;;30.19;41.83;102028.50;10412622;28;20068;-72
2022/07/14 09:01:05;;;;;;;5.95;1.33;;;;;;;30.61;40.86;102029.50;10400975;28;20041;-71
2022/07/14 09:06:06;;;;;;;6.57;2.00;;;;;;;30.77;36.39;102022.53;10421365;28;20113;-71
2022/07/14 09:11:17;;;;;;;1.20;1.10;;;;;;;30.25;36.34;102024.50;10420495;28;20052;-72
2022/07/14 09:16:22;;;;;;;1.70;1.60;;;;;;;30.27;37.60;102026.97;10422083;28;20069;-72
2022/07/14 09:21:22;;;;;;;2.65;1.65;;;;;;;30.66;35.58;102023.78;10421592;28;20041;-72
2022/07/14 09:26:23;;;;;;;1.02;0.90;;;;;;;30.57;36.19;102022.88;10421451;28;20049;-72
2022/07/14 09:31:25;;;;;;;5.93;1.52;;;;;;;29.82;36.57;102024.53;10420387;28;20049;-72
2022/07/14 09:36:30;;;;;;;1.80;1.58;;;;;;;29.53;36.38;102021.00;10420335;28;20033;-71
2022/07/14 09:41:36;;;;;;;1.90;1.27;;;;;;;29.85;39.23;102029.53;10420848;28;20041;-70
2022/07/14 09:47:03;;;;;;;0.98;0.98;;;;;;;30.32;39.19;102016.56;10422042;28;20025;-72
2022/07/14 09:52:06;;;;;;;1.45;1.25;;;;;;;30.31;40.05;102020.50;10396180;28;20057;-80
2022/07/14 09:57:13;;;;;;;5.88;2.25;;;;;;;31.22;38.16;102024.75;10420281;28;20096;-80
2022/07/14 10:02:15;;;;;;;2.80;2.17;;;;;;;31.93;38.67;102022.44;10418987;28;20065;-81
2022/07/14 10:07:17;;;;;;;2.10;1.70;;;;;;;32.12;38.27;102028.69;10401407;28;20115;-80
2022/07/14 10:12:18;;;;;;;4.80;2.05;;;;;;;31.72;36.16;102033.25;10401286;28;20433;-80
2022/07/14 10:17:18;;;;;;;1.65;1.55;;;;;;;31.25;36.45;102033.34;10418054;28;20031;-80
2022/07/14 10:22:18;;;;;;;5.40;1.75;;;;;;;31.59;36.70;102029.34;10401427;28;20041;-81
2022/07/14 10:27:20;;;;;;;3.90;1.95;;;;;;;33.01;37.17;102020.59;10417548;28;20037;-80
2022/07/14 10:32:41;;;;;;;1.65;1.55;;;;;;;32.60;37.39;102027.28;10400733;28;20120;-80
2022/07/14 10:38:20;;;;;;;1.88;1.77;;;;;;;31.64;38.58;102029.19;10416939;28;20473;-80
2022/07/14 10:43:23;;;;;;;3.60;1.35;;;;;;;30.91;37.50;102016.13;10417482;28;20029;-80
2022/07/14 10:48:31;;;;;;;3.03;1.73;;;;;;;30.71;37.52;102034.91;10419157;28;20338;-80
2022/07/14 10:53:31;;;;;;;1.42;1.33;;;;;;;30.79;38.53;102022.19;10418396;28;20053;-79
2022/07/14 10:58:32;;;;;;;11.07;1.90;;;;;;;31.53;37.92;102027.78;10399939;28;20389;-80
2022/07/14 11:03:32;;;;;;;1.45;1.35;;;;;;;31.77;36.44;102033.13;10418250;28;20267;-81
2022/07/14 11:08:33;;;;;;;1.58;1.48;;;;;;;31.59;36.75;102017.28;10417763;28;20535;-81
2022/07/14 11:13:33;;;;;;;5.03;1.48;;;;;;;31.81;37.21;102022.13;10417505;28;20354;-81
2022/07/14 11:18:35;;;;;;;2.43;1.03;;;;;;;32.02;36.53;102022.53;10415497;28;20033;-81
2022/07/14 11:23:39;;;;;;;3.05;1.60;;;;;;;32.53;36.07;102027.72;10398455;28;20265;-80
2022/07/14 11:28:48;;;;;;;3.92;1.95;;;;;;;32.68;35.03;102039.72;10400048;28;20037;-81
2022/07/14 11:39:15;;;;;;;1.27;1.08;;;;;;;31.76;36.37;102041.84;10415726;28;20037;-81
2022/07/14 11:44:33;;;;;;;3.13;1.27;;;;;;;32.03;34.85;102055.81;10415816;28;20040;-81
2022/07/14 11:49:34;;;;;;;1.33;1.20;;;;;;;31.66;35.14;102054.13;10416161;28;20029;-81
2022/07/14 11:54:35;;;;;;;4.45;1.35;;;;;;;31.45;35.46;102068.53;10415944;28;20060;-81
2022/07/14 11:59:39;;;;;;;0.88;0.88;;;;;;;31.37;35.74;102062.84;10382569;28;20124;-81
2022/07/14 12:04:53;;;;;;;3.00;1.27;;;;;;;30.84;35.11;102060.44;10414080;28;20029;-81
2022/07/14 12:09:54;;;;;;;1.20;1.05;;;;;;;30.45;35.80;102062.47;10415512;28;20033;-81
2022/07/14 12:14:54;;;;;;;1.10;1.02;;;;;;;30.78;35.91;102066.13;10415342;28;20033;-81
2022/07/14 12:19:54;;;;;;;1.65;1.55;;;;;;;30.79;36.15;102067.78;10416994;28;20124;-81
2022/07/14 12:24:57;;;;;;;9.70;1.70;;;;;;;30.92;35.79;102052.19;10416441;28;20033;-81
2022/07/14 12:29:57;;;;;;;8.10;1.40;;;;;;;30.90;34.16;102048.84;10414954;28;20041;-81
2022/07/14 12:34:57;;;;;;;1.20;1.17;;;;;;;30.92;35.28;102054.13;10400884;28;20030;-81
2022/07/14 12:39:58;;;;;;;2.03;1.30;;;;;;;31.22;35.54;102056.34;10423337;28;20420;-80
2022/07/14 12:44:59;;;;;;;6.65;1.30;;;;;;;31.44;35.83;102057.66;10421310;28;20045;-81
2022/07/14 12:50:00;;;;;;;0.90;0.90;;;;;;;31.02;34.65;102052.00;10422774;28;20045;-80
2022/07/14 12:55:00;;;;;;;0.80;0.65;;;;;;;31.06;35.14;102051.38;10406631;28;20057;-80
2022/07/14 13:00:13;;;;;;;2.40;1.20;;;;;;;31.01;32.05;102050.31;10405805;28;20042;-80
2022/07/14 13:05:13;;;;;;;2.53;0.85;;;;;;;31.07;35.12;102055.81;10423912;28;20258;-80
2022/07/14 13:10:16;;;;;;;2.15;1.13;;;;;;;31.26;35.13;102057.38;10421956;28;20037;-80
2022/07/14 13:15:18;;;;;;;1.02;0.90;;;;;;;31.17;34.66;102055.63;10422927;28;20029;-80
2022/07/14 13:20:50;;;;;;;4.72;1.20;;;;;;;31.11;34.56;102062.44;10422392;28;20044;-80
2022/07/14 13:25:54;;;;;;;3.50;0.93;;;;;;;30.77;33.76;102069.22;10421740;28;20037;-81
2022/07/14 13:30:55;;;;;;;1.40;0.73;;;;;;;30.87;34.20;102060.66;10422299;28;20026;-80
2022/07/14 13:35:59;;;;;;;0.85;0.85;;;;;;;30.68;32.79;102065.44;10420235;28;20079;-80
2022/07/14 13:41:00;;;;;;;1.02;0.90;;;;;;;30.51;33.13;102060.41;10420899;28;20040;-80
2022/07/14 13:46:00;;;;;;;1.03;1.03;;;;;;;30.56;32.67;102065.91;10420559;28;20044;-80
2022/07/14 13:56:20;;;;;;;0.82;0.82;;;;;;;30.87;32.06;102077.44;10420132;28;20061;-80
2022/07/14 14:01:20;;;;;;;0.60;0.60;;;;;;;30.69;32.42;102092.25;10421238;28;20033;-80
2022/07/14 14:06:21;;;;;;;3.40;1.30;;;;;;;29.04;31.89;102097.44;10419868;28;20038;-80
2022/07/14 14:11:23;;;;;;;3.20;1.02;;;;;;;28.42;33.42;102102.66;10419820;28;20298;-79
2022/07/14 14:16:25;;;;;;;0.80;0.80;;;;;;;27.78;34.28;102116.31;10420067;28;20033;-80
2022/07/14 14:21:26;;;;;;;0.80;0.80;;;;;;;27.09;31.78;102109.50;10420267;28;20033;-79
2022/07/14 14:26:26;;;;;;;2.08;1.38;;;;;;;27.22;32.00;102123.94;10419713;28;20068;-80
2022/07/14 14:31:27;;;;;;;7.85;1.90;;;;;;;27.09;31.82;102103.06;10421524;28;20041;-80
2022/07/14 14:36:27;;;;;;;1.67;0.93;;;;;;;26.42;33.10;102107.78;10421522;28;20037;-80
2022/07/14 14:41:27;;;;;;;1.45;1.20;;;;;;;26.42;33.53;102113.31;10421089;28;20048;-79
2022/07/14 14:46:28;;;;;;;1.48;1.38;;;;;;;26.18;33.94;102115.75;10422096;28;20048;-79
2022/07/14 14:51:28;;;;;;;0.73;0.73;;;;;;;25.77;34.80;102118.34;10422751;28;20363;-79
2022/07/14 14:56:29;;;;;;;1.92;1.08;;;;;;;25.44;35.79;102122.34;10423220;28;20299;-79
2022/07/14 15:01:29;;;;;;;2.97;1.52;;;;;;;25.01;36.56;102129.75;10420818;28;20493;-80
2022/07/14 15:06:29;;;;;;;1.52;1.42;;;;;;;24.82;37.31;102134.84;10420654;28;20044;-80
2022/07/14 15:11:30;;;;;;;2.63;1.95;;;;;;;24.97;37.62;102128.59;10403173;28;20033;-80
2022/07/14 15:16:31;;;;;;;1.80;1.42;;;;;;;25.05;38.38;102145.59;10404079;28;20072;-79
2022/07/14 15:21:32;;;;;;;4.15;2.30;;;;;;;25.00;39.06;102155.78;10423459;28;20063;-79
2022/07/14 15:26:32;;;;;;;6.53;1.90;;;;;;;24.68;40.53;102150.25;10423661;28;20068;-79
2022/07/14 15:31:33;;;;;;;1.70;1.60;;;;;;;24.79;40.91;102152.84;10424282;28;20421;-80
2022/07/14 15:36:33;;;;;;;3.00;2.20;;;;;;;24.13;43.08;102154.88;10421900;28;20068;-79
2022/07/14 15:41:33;;;;;;;6.77;2.67;;;;;;;24.13;43.28;102164.00;10419081;28;20045;-79
2022/07/14 15:46:35;;;;;;;6.10;1.90;;;;;;;24.26;44.50;102151.69;10425621;28;20267;-79
2022/07/14 15:51:35;;;;;;;3.80;2.05;;;;;;;24.06;44.09;102149.53;10430862;28;20049;-79
2022/07/14 15:56:36;;;;;;;7.18;2.35;;;;;;;23.57;45.86;102148.53;10417573;28;20056;-79
2022/07/14 16:01:36;;;;;;;4.10;1.85;;;;;;;23.59;45.28;102149.13;10417914;28;20465;-79
2022/07/14 16:06:36;;;;;;;2.97;1.65;;;;;;;23.84;46.00;102141.22;10400255;28;20037;-79
2022/07/14 16:11:37;;;;;;;3.20;2.37;;;;;;;23.86;46.19;102141.78;10426613;28;20052;-79
2022/07/14 16:16:38;;;;;;;7.55;2.08;;;;;;;23.74;46.51;102124.50;10427765;28;20283;-79
2022/07/14 16:21:39;;;;;;;8.13;3.15;;;;;;;23.78;46.52;102130.34;10392984;28;20030;-79
2022/07/14 16:26:39;;;;;;;3.03;2.15;;;;;;;23.38;47.32;102135.00;10425340;28;20025;-79
2022/07/14 16:31:40;;;;;;;3.88;2.17;;;;;;;22.75;47.96;102130.66;10424779;28;20346;-79
2022/07/14 16:36:41;;;;;;;4.25;2.53;;;;;;;21.92;48.28;102127.38;10407604;28;20063;-79
2022/07/14 16:41:42;;;;;;;11.80;2.95;;;;;;;21.51;48.30;102117.38;10424515;28;20083;-79
2022/07/14 16:46:42;;;;;;;3.75;2.53;;;;;;;21.42;48.84;102133.41;10425483;28;20056;-78
2022/07/14 16:51:43;;;;;;;6.55;1.92;;;;;;;21.26;49.79;102134.09;10423891;28;20048;-79
2022/07/14 16:56:43;;;;;;;6.88;2.78;;;;;;;21.08;49.59;102127.59;10423864;28;20056;-79
2022/07/14 17:01:44;;;;;;;3.33;1.92;;;;;;;20.91;49.47;102137.66;10422197;28;20462;-79
2022/07/14 17:06:46;;;;;;;6.43;2.85;;;;;;;20.72;50.34;102136.06;10421790;28;20377;-78
2022/07/14 17:11:47;;;;;;;3.53;2.70;;;;;;;20.69;51.24;102144.78;10421915;28;20040;-78
2022/07/14 17:16:47;;;;;;;19.38;3.33;;;;;;;20.59;55.09;102139.84;10421504;28;20487;-77
2022/07/14 17:21:48;;;;;;;4.93;1.60;;;;;;;20.36;53.01;102144.16;10420193;28;20435;-77
2022/07/14 17:26:48;;;;;;;2.22;2.00;;;;;;;20.03;54.20;102143.72;10421031;28;20079;-77
2022/07/14 17:31:50;;;;;;;1.98;1.88;;;;;;;19.82;52.15;102145.91;10420950;28;20103;-77
2022/07/14 17:36:51;;;;;;;4.40;2.30;;;;;;;19.62;54.01;102143.34;10403674;28;20120;-77
2022/07/14 17:41:52;;;;;;;4.03;2.65;;;;;;;19.61;55.33;102146.31;10421583;28;20037;-77
2022/07/14 17:46:53;;;;;;;2.00;1.20;;;;;;;19.74;57.16;102152.50;10420613;28;20079;-77
2022/07/14 17:52:12;;;;;;;2.85;1.80;;;;;;;19.62;57.66;102148.84;10421152;28;20116;-77
2022/07/14 17:57:12;;;;;;;3.53;2.30;;;;;;;19.67;56.15;102159.16;10419865;28;20119;-77
2022/07/14 18:02:13;;;;;;;3.70;1.93;;;;;;;19.77;57.87;102170.47;10418486;28;20103;-77
2022/07/14 18:07:13;;;;;;;5.45;1.88;;;;;;;19.83;55.44;102174.22;10421156;28;20263;-78
2022/07/14 18:12:13;;;;;;;4.20;1.92;;;;;;;19.73;56.57;102180.25;10419502;28;20473;-77
2022/07/14 18:17:14;;;;;;;4.97;2.17;;;;;;;19.61;57.95;102184.78;10419439;28;20034;-77
2022/07/14 18:22:16;;;;;;;2.15;1.90;;;;;;;19.15;57.87;102189.63;10419852;28;20034;-77
2022/07/14 18:27:17;;;;;;;10.73;1.85;;;;;;;18.75;60.55;102184.41;10419522;28;20065;-77
2022/07/14 18:32:17;;;;;;;7.28;3.25;;;;;;;18.79;65.21;102185.66;10401139;28;20557;-77
2022/07/14 18:37:18;;;;;;;7.15;2.72;;;;;;;19.05;61.69;102189.28;10418558;28;20107;-77
2022/07/14 18:42:19;;;;;;;4.93;2.92;;;;;;;18.87;61.82;102195.50;10419524;28;20065;-77
2022/07/14 18:47:19;;;;;;;4.88;2.13;;;;;;;18.48;61.11;102200.16;10418277;28;20030;-77
2022/07/14 18:52:19;;;;;;;3.83;2.40;;;;;;;18.22;58.99;102211.22;10418015;28;20490;-77
2022/07/14 18:57:20;;;;;;;10.95;2.88;;;;;;;18.07;59.51;102214.22;10438710;28;20048;-77
2022/07/14 19:02:21;;;;;;;5.60;2.95;;;;;;;18.11;62.33;102212.72;10459630;28;20056;-77
2022/07/14 19:07:21;;;;;;;6.03;2.97;;;;;;;18.18;62.19;102215.44;10459594;28;20040;-77
2022/07/14 19:12:22;;;;;;;4.18;2.55;;;;;;;18.17;59.55;102231.06;10440631;28;20040;-77
2022/07/14 19:17:22;;;;;;;5.97;2.38;;;;;;;17.96;62.75;102236.81;10457680;28;20087;-77
2022/07/14 19:22:22;;;;;;;7.68;2.95;;;;;;;17.68;66.63;102237.88;10458014;28;20044;-77
2022/07/14 19:27:23;;;;;;;5.03;2.80;;;;;;;17.55;61.81;102233.25;10459380;28;20060;-77
2022/07/14 19:32:23;;;;;;;8.68;3.35;;;;;;;17.38;65.96;102235.56;10457461;28;20041;-77
2022/07/14 19:37:24;;;;;;;4.85;1.80;;;;;;;17.32;62.85;102233.66;10458243;28;20037;-77
2022/07/14 19:42:25;;;;;;;6.82;1.75;;;;;;;17.28;63.63;102243.34;10439314;28;20064;-77
2022/07/14 19:47:25;;;;;;;2.60;1.65;;;;;;;17.36;61.67;102245.06;10440017;28;20057;-77
2022/07/14 19:52:25;;;;;;;6.80;2.20;;;;;;;17.29;63.61;102245.03;10457504;28;20036;-77
2022/07/14 19:57:26;;;;;;;4.63;2.28;;;;;;;17.15;63.05;102249.66;10454656;28;20120;-76
2022/07/14 20:02:27;;;;;;;6.63;2.95;;;;;;;16.93;61.94;102250.88;10441094;28;20120;-77
2022/07/14 20:07:28;;;;;;;5.35;2.20;;;;;;;16.74;62.19;102257.94;10456779;28;20040;-77
2022/07/14 20:12:28;;;;;;;14.40;2.28;;;;;;;16.52;65.43;102260.78;10457764;28;20069;-76
2022/07/14 20:17:29;;;;;;;10.38;2.67;;;;;;;16.50;63.11;102265.66;10424221;28;20064;-77
2022/07/14 20:22:29;;;;;;;6.55;2.85;;;;;;;16.51;61.55;102270.06;10456556;28;20033;-77
2022/07/14 20:33:01;;;;;;;4.47;2.87;;;;;;;16.31;61.94;102271.88;10439024;28;20044;-77
2022/07/14 20:38:03;;;;;;;3.22;2.28;;;;;;;16.18;62.25;102283.56;10456460;28;20029;-71
2022/07/14 20:43:03;;;;;;;4.70;1.75;;;;;;;16.11;62.79;102279.91;10456300;28;20025;-70
2022/07/14 20:48:04;;;;;;;12.20;2.65;;;;;;;16.07;63.59;102284.09;10455620;28;20048;-70
2022/07/14 20:53:04;;;;;;;4.93;2.33;;;;;;;16.01;65.05;102279.44;10453469;28;20373;-69
2022/07/14 20:58:05;;;;;;;8.18;2.55;;;;;;;15.95;64.32;102274.78;10421063;28;20029;-80
2022/07/14 21:03:05;;;;;;;4.72;2.30;;;;;;;15.89;63.65;102283.75;10422023;28;20057;-81
2022/07/14 21:08:06;;;;;;;7.53;2.45;;;;;;;15.82;63.64;102297.38;10404816;28;20034;-80
2022/07/14 21:13:06;;;;;;;8.30;3.10;;;;;;;15.79;64.33;102284.97;10421585;28;20041;-81
2022/07/14 21:18:06;;;;;;;7.90;2.63;;;;;;;15.73;65.39;102282.16;10403805;28;20029;-81
2022/07/14 21:23:07;;;;;;;10.13;2.05;;;;;;;15.71;63.10;102285.13;10421935;28;20465;-80
2022/07/14 21:28:07;;;;;;;11.05;2.30;;;;;;;15.64;63.27;102286.09;10421200;28;20041;-80
2022/07/14 21:33:07;;;;;;;5.45;1.83;;;;;;;15.57;62.55;102283.28;10421026;28;20034;-80
2022/07/14 21:38:08;;;;;;;3.83;1.83;;;;;;;15.53;64.46;102288.28;10420789;28;20480;-81
2022/07/14 21:43:08;;;;;;;3.83;1.63;;;;;;;15.55;63.81;102288.94;10421230;28;20087;-81
2022/07/14 21:48:09;;;;;;;2.28;2.00;;;;;;;15.52;63.24;102294.78;10420430;28;20041;-81
2022/07/14 21:53:09;;;;;;;1.67;1.58;;;;;;;15.45;63.07;102295.78;10419851;28;20025;-80
2022/07/14 21:58:09;;;;;;;8.77;2.05;;;;;;;15.38;67.45;102294.84;10419341;28;20029;-76
2022/07/14 22:03:11;;;;;;;4.78;2.90;;;;;;;15.37;64.55;102294.00;10419092;28;20034;-76
2022/07/14 22:08:12;;;;;;;4.25;2.50;;;;;;;15.37;63.93;102301.38;10419296;28;20536;-76
2022/07/14 22:13:12;;;;;;;9.63;1.83;;;;;;;15.38;65.14;102295.72;10420353;28;20045;-76
2022/07/14 22:18:12;;;;;;;20.67;3.55;;;;;;;15.38;65.07;102290.28;10400985;28;20037;-76
2022/07/14 22:23:13;;;;;;;5.05;2.65;;;;;;;15.30;64.46;102287.66;10402418;28;20037;-76
2022/07/14 22:28:13;;;;;;;9.80;2.53;;;;;;;15.26;64.72;102291.81;10418625;28;20034;-76
2022/07/14 22:33:14;;;;;;;5.05;2.25;;;;;;;15.25;66.24;102295.56;10419200;28;20377;-76
2022/07/14 22:38:14;;;;;;;5.35;1.98;;;;;;;15.23;65.41;102300.41;10420133;28;20064;-77
2022/07/14 22:43:15;;;;;;;12.10;3.38;;;;;;;15.23;67.41;102295.78;10417681;28;20092;-76
2022/07/14 22:48:15;;;;;;;7.28;2.15;;;;;;;15.15;66.77;102297.78;10417545;28;20037;-76
2022/07/14 22:53:17;;;;;;;9.15;2.33;;;;;;;15.07;65.61;102293.31;10417797;28;20085;-76
2022/07/14 22:58:17;;;;;;;3.55;2.47;;;;;;;15.05;68.25;102307.13;10418224;28;20034;-77
2022/07/14 23:03:17;;;;;;;11.52;2.35;;;;;;;15.00;66.52;102298.69;10418182;28;20064;-76
2022/07/14 23:08:19;;;;;;;8.07;2.25;;;;;;;14.92;66.83;102298.78;10416640;28;20046;-77
2022/07/14 23:13:19;;;;;;;6.63;2.65;;;;;;;14.91;68.15;102297.09;10417039;28;20064;-76
2022/07/14 23:18:19;;;;;;;5.18;2.38;;;;;;;14.82;67.90;102304.56;10416132;28;20457;-76
2022/07/14 23:23:20;;;;;;;2.72;2.13;;;;;;;14.74;72.98;102304.69;10416622;28;20374;-76
2022/07/14 23:28:21;;;;;;;17.73;2.97;;;;;;;14.72;69.80;102311.34;10417149;28;20080;-76
2022/07/14 23:33:22;;;;;;;4.28;2.15;;;;;;;14.64;69.94;102315.00;10415231;28;20358;-76